^^
Station Historical Data
Daily Summary for April 16, 2017 Units:  English    Metric   Both
« Previous Day
Next Day »
Daily Weekly Monthly Yearly Custom
  High: Low: Average:
Temperature: 83.7 °F 53.7 °F 68.1 °F
Dew Point: 60.3 °F 50.6 °F 55.5 °F
Humidity: 94 % 37 % 68 %
Wind Speed: 18.2 mph 0.0 mph 4.4 mph
Wind Gust: 28.8 mph - -
Wind:- - WSW
Pressure: 30.10 in 29.81 in -
Precipitation: 0.06 in    
Historical Graphs
 
 
Tabular Data for April 16, 2017
Time Temperature Dew Point Pressure Wind Wind Speed Wind Gust Humidity Rainfall Rate (Hourly) solar Conditions
00:03 57.8 °F 52.0 °F 30.10 in Calm     81 % 0.00 in 0.0 W/m2 BKN
00:08 57.7 °F 51.9 °F 30.09 in Calm     81 % 0.00 in 0.0 W/m2 BKN
00:13 57.6 °F 51.8 °F 30.09 in Calm     81 % 0.00 in 0.0 W/m2 BKN
00:18 57.5 °F 52.0 °F 30.09 in Calm     82 % 0.00 in 0.0 W/m2 BKN
00:23 57.4 °F 51.9 °F 30.09 in Calm     82 % 0.00 in 0.0 W/m2 BKN
00:28 57.2 °F 51.8 °F 30.09 in Calm     82 % 0.00 in 0.0 W/m2 BKN
00:33 57.2 °F 51.8 °F 30.09 in Calm     82 % 0.00 in 0.0 W/m2 BKN
00:38 57.3 °F 52.2 °F 30.08 in Calm     83 % 0.00 in 0.0 W/m2 BKN
00:43 57.2 °F 52.1 °F 30.08 in Calm     83 % 0.00 in 0.0 W/m2 BKN
00:48 57.2 °F 52.1 °F 30.08 in Calm     83 % 0.00 in 0.0 W/m2 BKN
00:53 56.7 °F 51.6 °F 30.08 in Calm     83 % 0.00 in 0.0 W/m2 BKN
00:58 56.2 °F 51.1 °F 30.08 in Calm     83 % 0.00 in 0.0 W/m2 BKN
01:03 55.9 °F 51.1 °F 30.08 in Calm     84 % 0.00 in 0.0 W/m2 BKN
01:08 56.0 °F 51.2 °F 30.08 in Calm     84 % 0.00 in 0.0 W/m2 BKN
01:09 55.9 °F 51.5 °F 30.08 in Calm     85 % 0.00 in 0.0 W/m2 CLR
01:15 55.9 °F 51.5 °F 30.08 in Calm     85 % 0.00 in 0.0 W/m2 BKN
01:20 55.8 °F 51.4 °F 30.08 in Calm     85 % 0.00 in 0.0 W/m2 BKN
01:25 55.5 °F 51.1 °F 30.08 in Calm     85 % 0.00 in 0.0 W/m2 BKN
01:30 55.4 °F 51.0 °F 30.08 in Calm     85 % 0.00 in 0.0 W/m2 BKN
01:35 55.4 °F 51.0 °F 30.08 in Calm     85 % 0.00 in 0.0 W/m2 BKN
01:40 55.4 °F 51.3 °F 30.08 in Calm     86 % 0.00 in 0.0 W/m2 BKN
01:45 55.3 °F 51.2 °F 30.07 in Calm     86 % 0.00 in 0.0 W/m2 BKN
01:50 55.1 °F 51.0 °F 30.07 in Calm     86 % 0.00 in 0.0 W/m2 BKN
01:55 55.1 °F 51.0 °F 30.07 in Calm     86 % 0.00 in 0.0 W/m2 BKN
02:00 54.9 °F 50.8 °F 30.07 in Calm     86 % 0.00 in 0.0 W/m2 BKN
02:05 54.7 °F 50.6 °F 30.06 in Calm     86 % 0.00 in 0.0 W/m2 BKN
02:10 55.3 °F 51.8 °F 30.06 in Calm     88 % 0.00 in 0.0 W/m2 BKN
02:15 55.6 °F 51.8 °F 30.06 in Calm     87 % 0.00 in 0.0 W/m2 BKN
02:20 55.6 °F 51.8 °F 30.06 in Calm     87 % 0.00 in 0.0 W/m2 BKN
02:25 55.3 °F 51.5 °F 30.06 in Calm     87 % 0.00 in 0.0 W/m2 BKN
02:30 55.2 °F 51.4 °F 30.06 in Calm     87 % 0.00 in 0.0 W/m2 BKN
02:35 54.7 °F 50.9 °F 30.05 in Calm     87 % 0.00 in 0.0 W/m2 BKN
02:40 54.4 °F 50.9 °F 30.05 in Calm     88 % 0.00 in 0.0 W/m2 BKN
02:45 54.4 °F 50.9 °F 30.05 in Calm     88 % 0.00 in 0.0 W/m2 BKN
02:50 54.5 °F 51.0 °F 30.05 in Calm     88 % 0.00 in 0.0 W/m2 BKN
02:55 54.5 °F 51.0 °F 30.05 in Calm     88 % 0.00 in 0.0 W/m2 BKN
03:00 54.3 °F 50.8 °F 30.05 in Calm     88 % 0.00 in 0.0 W/m2 BKN
03:05 55.0 °F 51.8 °F 30.05 in Calm     89 % 0.00 in 0.0 W/m2 BKN
03:10 54.6 °F 51.1 °F 30.04 in Calm     88 % 0.00 in 0.0 W/m2 BKN
03:15 54.7 °F 51.5 °F 30.04 in Calm     89 % 0.00 in 0.0 W/m2 BKN
03:20 55.2 °F 52.3 °F 30.04 in Calm     90 % 0.00 in 0.0 W/m2 BKN
03:25 55.7 °F 52.8 °F 30.04 in Calm   1.2 mph 90 % 0.00 in 0.0 W/m2 BKN
03:30 56.5 °F 53.3 °F 30.04 in Calm     89 % 0.00 in 0.0 W/m2 BKN
03:35 56.9 °F 53.7 °F 30.04 in Calm     89 % 0.00 in 0.0 W/m2 BKN
03:40 56.6 °F 53.4 °F 30.04 in Calm     89 % 0.00 in 0.0 W/m2 BKN
03:45 56.4 °F 53.2 °F 30.04 in Calm     89 % 0.00 in 0.0 W/m2 BKN
03:50 56.4 °F 53.2 °F 30.04 in Calm     89 % 0.00 in 0.0 W/m2 BKN
03:55 56.4 °F 53.2 °F 30.04 in Calm     89 % 0.00 in 0.0 W/m2 BKN
04:00 56.4 °F 53.2 °F 30.04 in Calm     89 % 0.00 in 0.0 W/m2 BKN
04:05 56.4 °F 53.2 °F 30.04 in Calm     89 % 0.00 in 0.0 W/m2 BKN
04:10 56.7 °F 53.8 °F 30.04 in Calm     90 % 0.00 in 0.0 W/m2 BKN
04:15 56.8 °F 53.6 °F 30.03 in Calm     89 % 0.00 in 0.0 W/m2 BKN
04:20 55.9 °F 52.4 °F 30.03 in NW 0.5 mph 1.2 mph 88 % 0.00 in 0.0 W/m2 BKN
04:25 55.5 °F 52.3 °F 30.03 in Calm     89 % 0.00 in 0.0 W/m2 BKN
04:30 55.1 °F 51.9 °F 30.03 in NW 0.1 mph 1.2 mph 89 % 0.00 in 0.0 W/m2 BKN
04:35 55.4 °F 52.8 °F 30.03 in Calm   1.2 mph 91 % 0.00 in 0.0 W/m2 BKN
04:40 55.3 °F 52.4 °F 30.03 in Calm     90 % 0.00 in 0.0 W/m2 BKN
04:45 54.8 °F 51.9 °F 30.03 in Calm     90 % 0.00 in 0.0 W/m2 BKN
04:50 54.8 °F 52.2 °F 30.03 in Calm     91 % 0.00 in 0.0 W/m2 BKN
04:55 54.9 °F 52.3 °F 30.03 in Calm     91 % 0.00 in 0.0 W/m2 BKN
05:00 55.1 °F 52.5 °F 30.03 in Calm   1.0 mph 91 % 0.00 in 0.0 W/m2 BKN
05:05 55.2 °F 52.6 °F 30.03 in WNW 0.1 mph 1.0 mph 91 % 0.00 in 0.0 W/m2 BKN
05:10 55.6 °F 53.0 °F 30.03 in Calm     91 % 0.00 in 0.0 W/m2 BKN
05:15 55.9 °F 53.3 °F 30.03 in Calm     91 % 0.00 in 0.0 W/m2 BKN
05:20 55.6 °F 53.0 °F 30.03 in Calm   1.2 mph 91 % 0.00 in 0.0 W/m2 BKN
05:25 55.1 °F 52.5 °F 30.03 in Calm     91 % 0.00 in 0.0 W/m2 BKN
05:30 54.9 °F 52.3 °F 30.03 in Calm     91 % 0.00 in 0.0 W/m2 BKN
05:35 55.1 °F 52.8 °F 30.02 in Calm     92 % 0.00 in 0.0 W/m2 BKN
05:40 54.9 °F 52.3 °F 30.02 in Calm     91 % 0.00 in 0.0 W/m2 BKN
05:45 55.1 °F 52.8 °F 30.02 in Calm     92 % 0.00 in 0.0 W/m2 BKN
05:50 54.8 °F 52.5 °F 30.02 in Calm     92 % 0.00 in 0.0 W/m2 BKN
05:55 54.5 °F 52.2 °F 30.02 in Calm     92 % 0.00 in 0.0 W/m2 BKN
06:00 54.3 °F 52.0 °F 30.02 in Calm     92 % 0.00 in 0.0 W/m2 BKN
06:05 54.1 °F 51.8 °F 30.02 in Calm     92 % 0.00 in 0.0 W/m2 BKN
06:10 53.8 °F 51.5 °F 30.02 in Calm     92 % 0.00 in 0.0 W/m2 BKN
06:15 53.7 °F 51.4 °F 30.02 in Calm     92 % 0.00 in 0.0 W/m2 BKN
06:20 53.7 °F 51.4 °F 30.02 in Calm     92 % 0.00 in 0.0 W/m2 BKN
06:25 53.7 °F 51.4 °F 30.02 in Calm     92 % 0.00 in 0.0 W/m2 BKN
06:30 54.0 °F 52.0 °F 30.02 in Calm     93 % 0.00 in 7.0 W/m2 BKN
06:35 53.9 °F 51.9 °F 30.02 in Calm     93 % 0.00 in 11.0 W/m2 BKN
06:40 53.8 °F 51.5 °F 30.02 in Calm     92 % 0.00 in 14.0 W/m2 BKN
06:45 53.9 °F 51.9 °F 30.03 in Calm     93 % 0.00 in 18.0 W/m2 BKN
06:50 53.9 °F 51.9 °F 30.03 in Calm     93 % 0.00 in 23.0 W/m2 BKN
06:55 54.2 °F 52.2 °F 30.03 in Calm     93 % 0.00 in 33.0 W/m2 BKN
07:00 54.2 °F 52.2 °F 30.03 in Calm     93 % 0.00 in 35.0 W/m2 BKN
07:05 54.8 °F 53.1 °F 30.03 in Calm     94 % 0.00 in 35.0 W/m2 BKN
07:10 54.3 °F 52.3 °F 30.03 in Calm     93 % 0.00 in 40.0 W/m2 SCT
07:15 54.6 °F 52.6 °F 30.03 in Calm     93 % 0.00 in 63.0 W/m2 SCT
07:20 55.1 °F 53.1 °F 30.03 in Calm     93 % 0.00 in 74.0 W/m2 FEW
07:25 56.0 °F 54.0 °F 30.03 in Calm     93 % 0.00 in 91.0 W/m2 FEW
07:30 56.7 °F 55.0 °F 30.03 in SW 1.4 mph 3.5 mph 94 % 0.00 in 121.0 W/m2 CLR
07:35 57.8 °F 56.1 °F 30.04 in West 3.7 mph 5.8 mph 94 % 0.00 in 98.0 W/m2 FEW
07:40 58.9 °F 56.9 °F 30.04 in West 3.0 mph 5.8 mph 93 % 0.00 in 58.0 W/m2 SCT
07:45 59.2 °F 56.9 °F 30.04 in WSW 5.0 mph 5.0 mph 92 % 0.00 in 65.0 W/m2 BKN
07:50 59.3 °F 57.0 °F 30.03 in SW 3.3 mph 8.1 mph 92 % 0.00 in 70.0 W/m2 SCT
07:55 59.5 °F 56.9 °F 30.03 in Calm     91 % 0.00 in 162.0 W/m2 FEW
08:00 59.9 °F 57.3 °F 30.03 in SW 0.1 mph 4.0 mph 91 % 0.00 in 114.0 W/m2 SCT
08:05 59.9 °F 57.0 °F 30.03 in WSW 2.2 mph 3.5 mph 90 % 0.00 in 163.0 W/m2 BKN
08:10 60.2 °F 57.3 °F 30.03 in Calm   3.5 mph 90 % 0.00 in 134.0 W/m2 SCT
08:15 60.6 °F 57.3 °F 30.03 in SW 0.6 mph 3.5 mph 89 % 0.00 in 207.0 W/m2 FEW
08:20 61.0 °F 57.4 °F 30.03 in SSW 2.5 mph 4.0 mph 88 % 0.00 in 292.0 W/m2 CLR
08:25 61.4 °F 57.8 °F 30.03 in WSW 2.7 mph 7.0 mph 88 % 0.00 in 318.0 W/m2 CLR
08:30 62.0 °F 58.1 °F 30.03 in SSW 1.8 mph 2.3 mph 87 % 0.00 in 330.0 W/m2 CLR
08:35 62.6 °F 58.4 °F 30.03 in SSW 6.5 mph 10.4 mph 86 % 0.00 in 385.0 W/m2 CLR
08:40 63.0 °F 58.4 °F 30.03 in SW 3.4 mph 4.0 mph 85 % 0.00 in 376.0 W/m2 CLR
08:45 63.4 °F 58.5 °F 30.03 in WSW 3.3 mph 6.0 mph 84 % 0.00 in 369.0 W/m2 CLR
08:50 64.0 °F 58.7 °F 30.03 in WSW 4.8 mph 10.4 mph 83 % 0.00 in 401.0 W/m2 CLR
08:55 64.6 °F 59.0 °F 30.03 in SW 8.8 mph 10.0 mph 82 % 0.00 in 413.0 W/m2 CLR
09:00 65.1 °F 59.1 °F 30.03 in SW 4.1 mph 9.2 mph 81 % 0.00 in 434.0 W/m2 CLR
09:05 65.5 °F 58.8 °F 30.02 in WSW 7.5 mph 10.4 mph 79 % 0.00 in 448.0 W/m2 CLR
09:10 65.9 °F 59.2 °F 30.02 in West 5.8 mph 8.1 mph 79 % 0.00 in 506.0 W/m2 CLR
09:15 66.2 °F 58.8 °F 30.03 in West 8.9 mph 11.5 mph 77 % 0.00 in 209.0 W/m2 CLR
09:17 66.3 °F 58.9 °F 30.03 in WSW 10.1 mph 11.5 mph 77 % 0.00 in 172.0 W/m2 BKN
09:22 66.0 °F 58.6 °F 30.03 in West 9.3 mph 15.0 mph 77 % 0.00 in 160.0 W/m2 BKN
09:27 66.5 °F 59.1 °F 30.03 in West 1.4 mph 6.9 mph 77 % 0.00 in 554.0 W/m2 CLR
09:32 67.1 °F 59.3 °F 30.02 in SW 4.5 mph 6.9 mph 76 % 0.00 in 564.0 W/m2 CLR
09:37 67.4 °F 59.2 °F 30.03 in SW 2.0 mph 9.2 mph 75 % 0.00 in 598.0 W/m2 CLR
09:42 67.7 °F 59.1 °F 30.03 in SW 1.0 mph 9.2 mph 74 % 0.00 in 629.0 W/m2 CLR
09:47 68.1 °F 59.5 °F 30.03 in WSW 3.6 mph 10.4 mph 74 % 0.00 in 376.0 W/m2 FEW
09:52 68.2 °F 59.2 °F 30.03 in WSW 3.5 mph 11.0 mph 73 % 0.00 in 287.0 W/m2 SCT
09:57 68.4 °F 59.0 °F 30.02 in West 5.6 mph 11.5 mph 72 % 0.00 in 779.0 W/m2 CLR
10:02 68.9 °F 59.5 °F 30.01 in Calm     72 % 0.00 in 137.0 W/m2 OVC
10:07 68.4 °F 59.8 °F 30.01 in SW 0.8 mph 3.5 mph 74 % 0.00 in 244.0 W/m2 BKN
10:12 67.9 °F 60.1 °F 30.01 in South 1.8 mph 3.5 mph 76 % 0.00 in 260.0 W/m2 CLR
10:17 67.6 °F 59.8 °F 30.01 in SW 2.9 mph 5.8 mph 76 % 0.00 in 381.0 W/m2 BKN
10:22 67.7 °F 59.9 °F 30.00 in SSW 5.7 mph 6.0 mph 76 % 0.00 in 548.0 W/m2 SCT
10:27 68.5 °F 60.3 °F 30.00 in SSW 4.8 mph 5.8 mph 75 % 0.00 in 708.0 W/m2 CLR
10:32 69.2 °F 59.8 °F 30.00 in SSW 4.5 mph 5.8 mph 72 % 0.00 in 527.0 W/m2 CLR
10:37 69.7 °F 59.9 °F 30.00 in WSW 2.8 mph 5.8 mph 71 % 0.00 in 608.0 W/m2 CLR
10:42 70.6 °F 59.9 °F 30.00 in WSW 3.0 mph 10.4 mph 69 % 0.00 in 735.0 W/m2 CLR
10:47 71.3 °F 59.8 °F 30.00 in WSW 3.5 mph 4.6 mph 67 % 0.00 in 738.0 W/m2 CLR
10:52 72.0 °F 59.6 °F 30.00 in SSW 3.8 mph 6.9 mph 65 % 0.00 in 754.0 W/m2 CLR
10:57 72.7 °F 59.8 °F 30.00 in WSW 7.3 mph 11.5 mph 64 % 0.00 in 763.0 W/m2 CLR
11:02 73.2 °F 59.4 °F 29.99 in SW 9.6 mph 15.0 mph 62 % 0.00 in 784.0 W/m2 CLR
11:07 73.5 °F 58.8 °F 29.99 in WSW 8.1 mph 17.3 mph 60 % 0.00 in 761.0 W/m2 CLR
11:12 73.8 °F 58.1 °F 29.99 in WSW 9.0 mph 15.0 mph 58 % 0.00 in 759.0 W/m2 CLR
11:17 74.1 °F 58.4 °F 29.98 in SW 3.9 mph 11.5 mph 58 % 0.00 in 779.0 W/m2 CLR
11:22 74.8 °F 58.5 °F 29.98 in SW 10.0 mph 11.0 mph 57 % 0.00 in 810.0 W/m2 CLR
11:24 74.9 °F 58.6 °F 29.98 in WSW 6.3 mph 11.5 mph 57 % 0.00 in 817.0 W/m2 CLR
11:29 75.2 °F 57.9 °F 29.98 in WSW 7.2 mph 13.8 mph 55 % 0.00 in 828.0 W/m2 CLR
11:34 75.6 °F 58.3 °F 29.97 in SW 4.0 mph 13.8 mph 55 % 0.00 in 833.0 W/m2 CLR
11:39 76.4 °F 59.0 °F 29.97 in WSW 8.6 mph 12.7 mph 55 % 0.00 in 844.0 W/m2 CLR
11:44 76.7 °F 58.3 °F 29.96 in WSW 1.7 mph 3.5 mph 53 % 0.00 in 791.0 W/m2 CLR
11:49 77.1 °F 58.1 °F 29.96 in SW 6.9 mph 13.8 mph 52 % 0.00 in 773.0 W/m2 CLR
11:54 77.4 °F 57.3 °F 29.96 in WSW 7.7 mph 14.0 mph 50 % 0.00 in 870.0 W/m2 CLR
11:59 77.7 °F 57.0 °F 29.95 in SSW 10.9 mph 13.8 mph 49 % 0.00 in 872.0 W/m2 CLR
12:04 78.4 °F 57.7 °F 29.95 in SW 2.3 mph 3.5 mph 49 % 0.00 in 884.0 W/m2 CLR
12:09 78.4 °F 57.1 °F 29.95 in West 9.2 mph 13.8 mph 48 % 0.00 in 879.0 W/m2 CLR
12:14 78.6 °F 56.7 °F 29.94 in WSW 5.9 mph 13.8 mph 47 % 0.00 in 888.0 W/m2 CLR
12:19 79.0 °F 56.5 °F 29.94 in SW 10.6 mph 15.0 mph 46 % 0.00 in 889.0 W/m2 CLR
12:24 78.9 °F 56.4 °F 29.94 in WSW 5.8 mph 11.5 mph 46 % 0.00 in 888.0 W/m2 CLR
12:29 79.7 °F 57.1 °F 29.94 in West 7.4 mph 11.5 mph 46 % 0.00 in 882.0 W/m2 CLR
12:34 79.9 °F 56.7 °F 29.93 in WSW 2.4 mph 13.8 mph 45 % 0.00 in 891.0 W/m2 CLR
12:39 80.4 °F 56.5 °F 29.93 in WSW 8.2 mph 13.8 mph 44 % 0.00 in 904.0 W/m2 CLR
12:44 80.3 °F 55.8 °F 29.93 in SW 13.0 mph 19.6 mph 43 % 0.00 in 907.0 W/m2 CLR
12:49 80.1 °F 55.6 °F 29.93 in South 10.2 mph 19.0 mph 43 % 0.00 in 914.0 W/m2 CLR
12:54 80.0 °F 55.5 °F 29.92 in WSW 9.3 mph 19.6 mph 43 % 0.00 in 916.0 W/m2 CLR
12:59 80.7 °F 56.1 °F 29.92 in West 8.6 mph 16.1 mph 43 % 0.00 in 904.0 W/m2 CLR
13:04 80.6 °F 56.0 °F 29.92 in WSW 10.2 mph 24.2 mph 43 % 0.00 in 919.0 W/m2 CLR
13:09 80.7 °F 56.1 °F 29.92 in SW 14.6 mph 25.3 mph 43 % 0.00 in 918.0 W/m2 CLR
13:14 80.6 °F 56.0 °F 29.92 in SW 8.0 mph 17.3 mph 43 % 0.00 in 907.0 W/m2 CLR
13:19 80.8 °F 56.2 °F 29.91 in West 8.2 mph 13.8 mph 43 % 0.00 in 847.0 W/m2 CLR
13:24 81.0 °F 55.7 °F 29.91 in WSW 10.8 mph 17.3 mph 42 % 0.00 in 858.0 W/m2 CLR
13:29 81.8 °F 56.5 °F 29.91 in WSW 9.2 mph 13.8 mph 42 % 0.00 in 909.0 W/m2 CLR
13:34 82.4 °F 55.7 °F 29.91 in WNW 10.0 mph 18.4 mph 40 % 0.00 in 923.0 W/m2 CLR
13:39 82.7 °F 55.9 °F 29.90 in WNW 9.2 mph 12.7 mph 40 % 0.00 in 947.0 W/m2 CLR
13:44 82.5 °F 56.4 °F 29.90 in West 5.9 mph 17.3 mph 41 % 0.00 in 935.0 W/m2 CLR
13:49 82.9 °F 56.1 °F 29.90 in West 10.4 mph 13.8 mph 40 % 0.00 in 933.0 W/m2 CLR
13:54 82.8 °F 56.0 °F 29.89 in SSW 9.6 mph 17.3 mph 40 % 0.00 in 1042.0 W/m2 CLR
13:59 83.0 °F 54.8 °F 29.89 in SW 12.4 mph 24.2 mph 38 % 0.00 in 359.0 W/m2 FEW
14:04 82.7 °F 53.8 °F 29.88 in WSW 14.0 mph 19.6 mph 37 % 0.00 in 373.0 W/m2 BKN
14:09 82.6 °F 54.4 °F 29.88 in West 12.8 mph 21.9 mph 38 % 0.00 in 348.0 W/m2 BKN
14:14 82.8 °F 54.6 °F 29.88 in West 12.1 mph 26.5 mph 38 % 0.00 in 990.0 W/m2 FEW
14:19 83.7 °F 54.7 °F 29.88 in WNW 11.6 mph 25.3 mph 37 % 0.00 in 949.0 W/m2 CLR
14:24 83.6 °F 55.3 °F 29.88 in WSW 9.8 mph 18.0 mph 38 % 0.00 in 555.0 W/m2 SCT
14:29 83.4 °F 55.1 °F 29.88 in West 9.4 mph 15.0 mph 38 % 0.00 in 380.0 W/m2 SCT
14:34 83.4 °F 55.2 °F 29.87 in WSW 8.0 mph 16.0 mph 38 % 0.00 in 417.0 W/m2 BKN
14:40 83.5 °F 55.9 °F 29.87 in SW 1.0 mph 18.0 mph 39 % 0.00 in 417.0 W/m2 SCT
14:45 83.1 °F 54.9 °F 29.87 in WSW 12.3 mph 18.4 mph 38 % 0.00 in 139.0 W/m2 OVC
14:50 82.3 °F 53.4 °F 29.87 in WSW 17.9 mph 26.5 mph 37 % 0.00 in 62.0 W/m2 OVC
14:55 81.6 °F 57.6 °F 29.89 in SW 14.2 mph 25.3 mph 44 % 0.00 in 62.0 W/m2 OVC
15:00 77.9 °F 59.4 °F 29.89 in WSW 9.4 mph 23.0 mph 53 % 0.01 in 169.0 W/m2 RA
15:05 76.5 °F 59.6 °F 29.88 in West 4.7 mph 12.7 mph 56 % 0.02 in 911.0 W/m2 RA
15:10 77.4 °F 57.9 °F 29.87 in West 11.2 mph 17.3 mph 51 % 0.02 in 826.0 W/m2 RA
15:15 78.6 °F 58.4 °F 29.86 in WNW 6.0 mph 9.2 mph 50 % 0.02 in 773.0 W/m2 CLR
15:20 79.6 °F 58.8 °F 29.86 in WSW 3.8 mph 9.2 mph 49 % 0.02 in 749.0 W/m2 CLR
15:25 80.1 °F 58.0 °F 29.85 in NW 6.8 mph 13.8 mph 47 % 0.02 in 729.0 W/m2 CLR
15:30 81.0 °F 58.3 °F 29.85 in WNW 5.2 mph 12.7 mph 46 % 0.02 in 696.0 W/m2 CLR
15:35 81.4 °F 57.4 °F 29.85 in West 8.2 mph 11.5 mph 44 % 0.02 in 724.0 W/m2 CLR
15:40 81.3 °F 57.3 °F 29.84 in West 9.6 mph 18.4 mph 44 % 0.02 in 722.0 W/m2 CLR
15:45 81.9 °F 58.5 °F 29.84 in WSW 2.9 mph 8.0 mph 45 % 0.02 in 679.0 W/m2 CLR
15:50 81.5 °F 56.8 °F 29.83 in West 5.6 mph 12.7 mph 43 % 0.02 in 176.0 W/m2 FEW
15:55 81.4 °F 56.8 °F 29.83 in WSW 4.1 mph 10.4 mph 43 % 0.02 in 246.0 W/m2 BKN
16:00 81.3 °F 57.3 °F 29.83 in WSW 6.2 mph 12.0 mph 44 % 0.01 in 151.0 W/m2 OVC
16:05 81.7 °F 55.0 °F 29.83 in WSW 13.2 mph 15.0 mph 40 % 0.00 in 174.0 W/m2 BKN
16:10 82.3 °F 54.9 °F 29.83 in SW 14.7 mph 21.9 mph 39 % 0.00 in 717.0 W/m2 CLR
16:15 82.8 °F 54.6 °F 29.83 in SW 7.9 mph 21.9 mph 38 % 0.00 in 552.0 W/m2 CLR
16:20 83.0 °F 54.0 °F 29.82 in WSW 18.2 mph 28.8 mph 37 % 0.00 in 566.0 W/m2 CLR
16:25 82.8 °F 55.3 °F 29.82 in SSW 11.4 mph 17.3 mph 39 % 0.00 in 534.0 W/m2 CLR
16:30 82.4 °F 55.7 °F 29.82 in South 12.4 mph 21.9 mph 40 % 0.00 in 522.0 W/m2 CLR
16:36 82.3 °F 55.6 °F 29.81 in South 2.8 mph 8.1 mph 40 % 0.00 in 503.0 W/m2 CLR
16:41 82.3 °F 54.9 °F 29.81 in SW 10.0 mph 16.0 mph 39 % 0.00 in 487.0 W/m2 CLR
16:46 82.4 °F 55.0 °F 29.81 in SSW 11.6 mph 19.6 mph 39 % 0.00 in 473.0 W/m2 CLR
16:51 82.4 °F 55.0 °F 29.81 in WSW 10.5 mph 18.0 mph 39 % 0.00 in 454.0 W/m2 CLR
16:56 82.5 °F 54.3 °F 29.81 in WSW 13.5 mph 21.9 mph 38 % 0.00 in 429.0 W/m2 CLR
17:01 82.2 °F 54.1 °F 29.81 in SW 4.9 mph 17.3 mph 38 % 0.00 in 420.0 W/m2 CLR
17:06 82.1 °F 54.7 °F 29.81 in SW 12.1 mph 17.3 mph 39 % 0.00 in 406.0 W/m2 CLR
17:11 81.9 °F 54.5 °F 29.81 in WSW 7.3 mph 12.7 mph 39 % 0.00 in 397.0 W/m2 CLR
17:16 81.8 °F 53.7 °F 29.82 in SSW 9.7 mph 27.6 mph 38 % 0.00 in 362.0 W/m2 CLR
17:21 81.7 °F 53.6 °F 29.82 in WSW 14.3 mph 26.5 mph 38 % 0.00 in 371.0 W/m2 CLR
17:26 81.6 °F 54.2 °F 29.82 in WSW 9.6 mph 18.4 mph 39 % 0.00 in 378.0 W/m2 CLR
17:31 81.7 °F 53.6 °F 29.81 in West 7.2 mph 26.5 mph 38 % 0.00 in 369.0 W/m2 CLR
17:36 81.7 °F 53.6 °F 29.81 in SW 10.7 mph 27.6 mph 38 % 0.00 in 341.0 W/m2 CLR
17:41 81.5 °F 54.2 °F 29.81 in WSW 6.5 mph 12.7 mph 39 % 0.00 in 323.0 W/m2 CLR
17:46 81.6 °F 54.9 °F 29.81 in SSW 10.1 mph 11.5 mph 40 % 0.00 in 276.0 W/m2 CLR
17:51 81.6 °F 54.2 °F 29.81 in WSW 10.2 mph 20.0 mph 39 % 0.00 in 234.0 W/m2 CLR
17:56 81.4 °F 54.1 °F 29.81 in WSW 4.7 mph 13.8 mph 39 % 0.00 in 272.0 W/m2 CLR
18:01 81.3 °F 54.0 °F 29.81 in WSW 10.1 mph 13.8 mph 39 % 0.00 in 253.0 W/m2 CLR
18:06 81.3 °F 54.0 °F 29.81 in SW 9.3 mph 16.1 mph 39 % 0.00 in 243.0 W/m2 CLR
18:11 81.3 °F 54.0 °F 29.81 in WSW 11.0 mph 18.4 mph 39 % 0.00 in 234.0 W/m2 CLR
18:16 81.3 °F 54.7 °F 29.81 in SW 8.4 mph 26.5 mph 40 % 0.00 in 221.0 W/m2 CLR
18:21 81.2 °F 54.6 °F 29.81 in SW 10.9 mph 16.1 mph 40 % 0.00 in 199.0 W/m2 CLR
18:26 81.0 °F 54.4 °F 29.81 in SW 12.6 mph 23.0 mph 40 % 0.00 in 165.0 W/m2 CLR
18:32 80.8 °F 54.2 °F 29.81 in SW 7.8 mph 18.4 mph 40 % 0.00 in 139.0 W/m2 CLR
18:37 80.5 °F 54.6 °F 29.81 in SW 3.1 mph 8.1 mph 41 % 0.00 in 109.0 W/m2 FEW
18:42 80.2 °F 54.4 °F 29.81 in WSW 11.1 mph 20.7 mph 41 % 0.00 in 90.0 W/m2 SCT
18:47 80.0 °F 54.2 °F 29.81 in WSW 6.7 mph 10.4 mph 41 % 0.00 in 72.0 W/m2 SCT
18:52 79.7 °F 53.9 °F 29.81 in WSW 8.6 mph 15.0 mph 41 % 0.00 in 53.0 W/m2 SCT
18:57 79.5 °F 54.4 °F 29.81 in WSW 8.0 mph 23.0 mph 42 % 0.00 in 37.0 W/m2 BKN
19:02 79.1 °F 54.0 °F 29.81 in West 12.3 mph 26.5 mph 42 % 0.00 in 26.0 W/m2 BKN
19:07 79.0 °F 53.9 °F 29.82 in SW 2.5 mph 8.1 mph 42 % 0.00 in 25.0 W/m2 BKN
19:12 78.8 °F 53.1 °F 29.82 in SW 4.8 mph 17.3 mph 41 % 0.00 in 19.0 W/m2 BKN
19:17 78.7 °F 53.7 °F 29.82 in SW 6.7 mph 11.5 mph 42 % 0.00 in 16.0 W/m2 BKN
19:22 78.3 °F 53.3 °F 29.82 in WSW 4.7 mph 12.7 mph 42 % 0.00 in 12.0 W/m2 BKN
19:27 78.1 °F 53.1 °F 29.82 in WSW 4.3 mph 9.2 mph 42 % 0.00 in 9.0 W/m2 BKN
19:32 77.9 °F 53.6 °F 29.82 in WSW 6.5 mph 18.0 mph 43 % 0.00 in 5.0 W/m2 BKN
19:37 77.8 °F 53.5 °F 29.82 in SSW 8.1 mph 11.5 mph 43 % 0.00 in 0.0 W/m2 OVC
19:42 77.8 °F 53.5 °F 29.82 in SW 4.5 mph 9.0 mph 43 % 0.00 in 0.0 W/m2 CLR
19:47 77.6 °F 54.0 °F 29.82 in WSW 3.7 mph 9.2 mph 44 % 0.00 in 0.0 W/m2 CLR
19:52 77.4 °F 53.8 °F 29.83 in West 4.1 mph 5.8 mph 44 % 0.00 in 0.0 W/m2 CLR
19:57 77.4 °F 53.8 °F 29.83 in WSW 4.3 mph 16.1 mph 44 % 0.00 in 0.0 W/m2 CLR
20:02 77.3 °F 54.3 °F 29.83 in WSW 2.0 mph 11.5 mph 45 % 0.00 in 0.0 W/m2 CLR
20:07 77.1 °F 54.1 °F 29.84 in West 3.4 mph 11.5 mph 45 % 0.00 in 0.0 W/m2 CLR
20:12 77.0 °F 54.0 °F 29.84 in WSW 7.6 mph 12.7 mph 45 % 0.00 in 0.0 W/m2 CLR
20:17 76.8 °F 54.5 °F 29.85 in SW 3.3 mph 12.7 mph 46 % 0.00 in 0.0 W/m2 CLR
20:22 76.5 °F 54.2 °F 29.85 in West 0.5 mph 4.0 mph 46 % 0.00 in 0.0 W/m2 CLR
20:27 76.3 °F 54.6 °F 29.86 in WNW 4.1 mph 8.1 mph 47 % 0.00 in 0.0 W/m2 CLR
20:32 76.1 °F 55.5 °F 29.89 in NNE 9.2 mph 14.0 mph 49 % 0.00 in 0.0 W/m2 CLR
20:37 73.7 °F 57.5 °F 29.90 in WNW 15.2 mph 25.0 mph 57 % 0.00 in 0.0 W/m2 CLR
20:42 71.7 °F 57.5 °F 29.90 in NW 14.9 mph 21.9 mph 61 % 0.00 in 0.0 W/m2 CLR
20:47 70.5 °F 57.7 °F 29.90 in NW 15.0 mph 19.6 mph 64 % 0.00 in 0.0 W/m2 CLR
20:52 69.7 °F 57.8 °F 29.90 in NW 10.9 mph 17.3 mph 66 % 0.00 in 0.0 W/m2 CLR
20:57 69.2 °F 57.8 °F 29.91 in NW 11.1 mph 19.0 mph 67 % 0.00 in 0.0 W/m2 CLR
21:02 69.0 °F 58.0 °F 29.91 in North 12.1 mph 20.7 mph 68 % 0.00 in 0.0 W/m2 CLR
21:07 68.7 °F 58.1 °F 29.91 in NW 10.5 mph 17.3 mph 69 % 0.00 in 0.0 W/m2 CLR
21:09 68.6 °F 58.0 °F 29.91 in North 10.4 mph 17.3 mph 69 % 0.00 in 0.0 W/m2 CLR
21:14 68.4 °F 58.2 °F 29.92 in NW 8.4 mph 17.3 mph 70 % 0.00 in 0.0 W/m2 CLR
21:19 68.2 °F 58.4 °F 29.92 in NW 5.1 mph 10.4 mph 71 % 0.00 in 0.0 W/m2 CLR
21:24 68.0 °F 58.6 °F 29.93 in NW 7.3 mph 10.4 mph 72 % 0.00 in 0.0 W/m2 CLR
21:29 67.6 °F 59.0 °F 29.93 in WNW 9.2 mph 15.0 mph 74 % 0.00 in 0.0 W/m2 CLR
21:34 66.8 °F 59.4 °F 29.92 in WNW 9.1 mph 12.7 mph 77 % 0.01 in 0.0 W/m2 RA
21:39 66.1 °F 59.4 °F 29.92 in West 2.1 mph 6.9 mph 79 % 0.02 in 0.0 W/m2 RA
21:44 65.6 °F 59.6 °F 29.92 in West 0.4 mph 3.5 mph 81 % 0.02 in 0.0 W/m2 RA
21:49 65.5 °F 59.9 °F 29.92 in Calm     82 % 0.02 in 0.0 W/m2
21:54 65.3 °F 60.0 °F 29.92 in SSW 0.4 mph 3.5 mph 83 % 0.02 in 0.0 W/m2
21:59 65.1 °F 60.1 °F 29.92 in Calm   1.2 mph 84 % 0.02 in 0.0 W/m2
22:04 65.0 °F 60.0 °F 29.92 in Calm     84 % 0.02 in 0.0 W/m2
22:09 64.9 °F 59.9 °F 29.92 in SW 0.5 mph 3.5 mph 84 % 0.03 in 0.0 W/m2 RA
22:14 64.7 °F 60.1 °F 29.92 in SW 1.4 mph 4.6 mph 85 % 0.03 in 0.0 W/m2 RA
22:19 64.6 °F 60.3 °F 29.92 in Calm   2.3 mph 86 % 0.04 in 0.0 W/m2 RA
22:24 64.5 °F 60.2 °F 29.92 in Calm     86 % 0.04 in 0.0 W/m2 RA
22:29 64.4 °F 60.1 °F 29.91 in Calm     86 % 0.04 in 0.0 W/m2
22:34 64.3 °F 60.1 °F 29.91 in Calm     86 % 0.00 in 0.0 W/m2
22:40 64.4 °F 60.1 °F 29.91 in Calm   1.2 mph 86 % 0.02 in 0.0 W/m2
22:45 64.3 °F 60.0 °F 29.91 in Calm     86 % 0.02 in 0.0 W/m2
22:50 64.2 °F 59.9 °F 29.91 in Calm   1.0 mph 86 % 0.00 in 0.0 W/m2
22:54 64.2 °F 59.9 °F 29.91 in Calm   1.0 mph 86 % 0.00 in 0.0 W/m2
22:59 64.2 °F 60.2 °F 29.91 in WSW 0.2 mph 2.0 mph 87 % 0.02 in 0.0 W/m2
23:04 63.9 °F 60.0 °F 29.92 in WSW 0.2 mph 3.5 mph 87 % 0.02 in 0.0 W/m2
23:09 63.9 °F 60.0 °F 29.91 in Calm   3.5 mph 87 % 0.01 in 0.0 W/m2
23:15 63.8 °F 59.9 °F 29.91 in SW 0.6 mph   87 % 0.01 in 0.0 W/m2
23:20 63.8 °F 59.9 °F 29.92 in SW 0.6 mph   87 % 0.00 in 0.0 W/m2 CLR
23:25 63.8 °F 60.2 °F 29.92 in Calm   2.0 mph 88 % 0.00 in 0.0 W/m2 CLR
23:29 63.6 °F 60.0 °F 29.91 in WSW 0.8 mph 1.2 mph 88 % 0.00 in 0.0 W/m2 CLR
23:34 63.6 °F 60.0 °F 29.91 in SW 2.0 mph 5.0 mph 88 % 0.00 in 0.0 W/m2 CLR
23:39 63.5 °F 59.9 °F 29.91 in WSW 1.0 mph 7.0 mph 88 % 0.00 in 0.0 W/m2 CLR
23:45 63.5 °F 59.9 °F 29.91 in SW 1.4 mph 5.8 mph 88 % 0.00 in 0.0 W/m2 CLR
23:50 63.5 °F 59.9 °F 29.91 in SW 2.9 mph 4.6 mph 88 % 0.00 in 0.0 W/m2 CLR
23:55 63.5 °F 59.9 °F 29.91 in WSW 3.0 mph 8.1 mph 88 % 0.00 in 0.0 W/m2 CLR
Air Products Campus Weather
Compliments of Weather Underground - 3.5 mb